Time;durP1;ratioP1;P1;durP2;ratioP2;P2;SDS_P1;SDS_P2;PMS_P1;PMS_P2;Temp;Humidity;BMP_temperature;BMP_pressure;BME280_temperature;BME280_humidity;BME280_pressure;Samples;Min_cycle;Max_cycle;Signal;HPM_P1;HPM_P2
2022/01/06 00:01:09;;;;;;;2.90;1.30;;;;;;;3.21;84.79;99277.33;1649721;87;21958;-75
2022/01/06 00:03:36;;;;;;;3.27;1.07;;;;;;;3.23;84.82;99270.83;1651081;86;21051;-75
2022/01/06 00:06:08;;;;;;;2.63;0.80;;;;;;;3.24;84.88;99282.45;1649615;87;21081;-74
2022/01/06 00:08:35;;;;;;;2.83;0.78;;;;;;;3.25;84.91;99275.53;1651161;86;21055;-75
2022/01/06 00:11:04;;;;;;;2.97;1.37;;;;;;;3.25;84.95;99281.56;1649848;87;21027;-74
2022/01/06 00:13:57;;;;;;;2.93;0.80;;;;;;;3.24;84.90;99280.28;1651210;86;21836;-76
2022/01/06 00:16:15;;;;;;;3.87;0.80;;;;;;;3.23;84.97;99288.95;1647160;87;20954;-75
2022/01/06 00:23:19;;;;;;;2.17;0.83;;;;;;;3.24;85.04;99297.12;1649926;87;21049;-75
2022/01/06 00:23:43;;;;;;;1.60;0.70;;;;;;;3.24;85.07;99298.00;1648103;86;21505;-75
2022/01/06 00:26:04;;;;;;;4.10;1.00;;;;;;;3.24;85.03;99305.77;1649044;86;21116;-74
2022/01/06 00:28:32;;;;;;;1.77;0.80;;;;;;;3.22;85.10;99301.06;1651001;86;21572;-75
2022/01/06 00:31:00;;;;;;;3.43;0.93;;;;;;;3.22;85.10;99303.65;1651503;86;21775;-78
2022/01/06 00:33:31;;;;;;;1.30;0.70;;;;;;;3.21;85.10;99303.67;1651172;86;21043;-75
2022/01/06 00:35:59;;;;;;;2.93;0.80;;;;;;;3.21;85.02;99303.67;1651504;86;21142;-75
2022/01/06 00:38:27;;;;;;;1.73;0.80;;;;;;;3.18;85.05;99301.16;1651174;86;21157;-75
2022/01/06 00:40:56;;;;;;;3.77;0.90;;;;;;;3.15;85.07;99305.13;1649998;87;21489;-75
2022/01/06 00:43:23;;;;;;;4.20;1.00;;;;;;;3.10;85.11;99302.64;1651079;86;21137;-75
2022/01/06 00:45:52;;;;;;;2.20;0.87;;;;;;;3.05;85.18;99304.06;1623758;88;21501;-74
2022/01/06 00:48:19;;;;;;;1.90;0.80;;;;;;;3.00;85.29;99310.23;1649807;87;21038;-75
2022/01/06 00:50:47;;;;;;;1.90;0.90;;;;;;;2.96;85.29;99337.06;1651312;86;21140;-75
2022/01/06 00:53:14;;;;;;;3.13;0.97;;;;;;;2.92;85.52;99313.00;1649664;87;21030;-75
2022/01/06 00:55:41;;;;;;;3.40;1.00;;;;;;;2.90;85.63;99324.66;1651298;86;21083;-75
2022/01/06 00:58:09;;;;;;;3.47;1.33;;;;;;;2.91;85.83;99326.84;1645361;86;21038;-75
2022/01/06 01:00:41;;;;;;;2.43;1.20;;;;;;;2.91;85.81;99322.95;1630010;88;21051;-75
2022/01/06 01:03:19;;;;;;;4.73;1.17;;;;;;;2.90;85.92;99321.23;1630106;87;21120;-75
2022/01/06 01:05:49;;;;;;;2.13;1.00;;;;;;;2.90;85.87;99322.08;1630082;87;21118;-76
2022/01/06 01:08:16;;;;;;;4.67;0.93;;;;;;;2.89;85.87;99332.48;1630201;88;21047;-75
2022/01/06 01:10:44;;;;;;;2.70;0.77;;;;;;;2.88;85.90;99326.88;1630195;88;21099;-74
2022/01/06 01:13:13;;;;;;;2.50;0.70;;;;;;;2.90;85.88;99322.08;1629995;88;21528;-75
2022/01/06 01:15:47;;;;;;;3.27;0.80;;;;;;;2.90;85.82;99319.94;1630016;88;21501;-75
2022/01/06 01:18:17;;;;;;;3.60;0.70;;;;;;;2.92;85.75;99332.86;1624555;87;21041;-75
2022/01/06 01:20:42;;;;;;;;;;;;;;;2.88;85.62;99328.17;1606169;88;21585;-78
2022/01/06 01:23:09;;;;;;;4.80;0.83;;;;;;;2.86;85.48;99333.84;1616177;88;20603;-76
2022/01/06 01:25:37;;;;;;;2.53;0.60;;;;;;;2.83;85.47;99341.23;1604186;88;21114;-75
2022/01/06 01:28:04;;;;;;;3.00;0.63;;;;;;;2.81;85.43;99333.09;1604368;89;21141;-75
2022/01/06 01:30:40;;;;;;;4.30;0.70;;;;;;;2.78;85.49;99348.25;1604111;89;21496;-75
2022/01/06 01:33:01;;;;;;;1.77;0.50;;;;;;;2.76;85.62;99351.30;1603688;88;21492;-75
2022/01/06 01:35:31;;;;;;;2.07;0.50;;;;;;;2.76;85.63;99348.72;1604101;89;21545;-76
2022/01/06 01:37:58;;;;;;;1.40;0.50;;;;;;;2.75;85.71;99360.41;1604271;88;21090;-75
2022/01/06 01:40:26;;;;;;;2.73;0.80;;;;;;;2.74;85.69;99355.66;1604056;89;22004;-75
2022/01/06 01:42:53;;;;;;;3.03;0.77;;;;;;;2.74;85.74;99359.53;1604347;88;21135;-74
2022/01/06 01:45:26;;;;;;;2.77;0.80;;;;;;;2.74;85.89;99362.57;1604092;88;21051;-75
2022/01/06 01:47:49;;;;;;;4.73;1.37;;;;;;;2.74;85.90;99369.88;1603985;88;21067;-76
2022/01/06 01:50:18;;;;;;;4.93;1.17;;;;;;;2.74;85.88;99369.04;1604152;89;21119;-76
2022/01/06 01:52:49;;;;;;;2.57;1.00;;;;;;;2.74;85.92;99372.92;1604218;88;21148;-76
2022/01/06 01:55:27;;;;;;;2.93;1.10;;;;;;;2.72;85.98;99375.56;1604029;88;21035;-76
2022/01/06 01:57:56;;;;;;;4.13;1.30;;;;;;;2.72;86.01;99379.89;1620872;86;21030;-75
2022/01/06 02:00:27;;;;;;;5.00;1.30;;;;;;;2.70;86.05;99379.91;1650533;87;21125;-74
2022/01/06 02:02:54;;;;;;;4.53;1.50;;;;;;;2.72;86.13;99385.91;1650936;86;21037;-74
2022/01/06 02:05:26;;;;;;;4.83;1.20;;;;;;;2.73;86.22;99385.02;1650617;87;21539;-74
2022/01/06 02:07:51;;;;;;;5.27;1.47;;;;;;;2.75;86.20;99394.05;1650326;86;21137;-76
2022/01/06 02:10:20;;;;;;;3.63;1.57;;;;;;;2.76;86.22;99390.12;1650630;87;21070;-74
2022/01/06 02:12:49;;;;;;;3.73;1.27;;;;;;;2.78;86.24;99393.98;1622852;88;21069;-74
2022/01/06 02:15:17;;;;;;;5.93;1.13;;;;;;;2.79;86.19;99393.08;1651004;87;21093;-75
2022/01/06 02:17:44;;;;;;;4.50;1.17;;;;;;;2.81;86.24;99390.87;1622743;88;21848;-75
2022/01/06 02:20:15;;;;;;;4.50;1.30;;;;;;;2.81;86.23;99393.46;1650803;86;21070;-75
2022/01/06 02:22:43;;;;;;;5.00;1.20;;;;;;;2.82;86.15;99392.56;1622717;88;21089;-76
2022/01/06 02:25:30;;;;;;;3.97;1.13;;;;;;;2.83;86.15;99393.00;1650858;86;21050;-76
2022/01/06 02:28:00;;;;;;;4.33;1.30;;;;;;;2.84;86.15;99387.38;1650551;87;21966;-74
2022/01/06 02:30:27;;;;;;;5.00;1.45;;;;;;;2.84;86.04;99395.98;1623234;88;22888;-75
2022/01/06 02:32:55;;;;;;;4.70;0.90;;;;;;;2.84;85.99;99399.02;1650625;87;21118;-75
2022/01/06 02:35:24;;;;;;;3.13;1.03;;;;;;;2.83;85.99;99397.33;1622952;88;21081;-77
2022/01/06 02:37:51;;;;;;;6.37;1.13;;;;;;;2.81;85.94;99404.27;1649285;87;21547;-75
2022/01/06 02:40:22;;;;;;;7.40;1.67;;;;;;;2.80;85.95;99406.00;1649419;87;21026;-74
2022/01/06 02:42:56;;;;;;;6.10;1.63;;;;;;;2.79;85.87;99403.44;1649213;87;21542;-75
2022/01/06 02:45:28;;;;;;;5.10;1.10;;;;;;;2.77;85.83;99399.60;1649390;87;21073;-74
2022/01/06 02:47:56;;;;;;;5.67;1.20;;;;;;;2.76;85.85;99395.30;1650741;87;21482;-75
2022/01/06 02:50:26;;;;;;;4.13;1.00;;;;;;;2.78;85.83;99406.92;1650920;87;21094;-74
2022/01/06 02:52:53;;;;;;;3.12;0.93;;;;;;;2.77;85.80;99411.66;1650766;87;21149;-75
2022/01/06 02:55:21;;;;;;;6.63;1.10;;;;;;;2.77;85.87;99415.13;1622755;88;21508;-74
2022/01/06 02:57:48;;;;;;;4.60;0.90;;;;;;;2.77;85.90;99417.72;1649148;87;21085;-74
2022/01/06 03:00:18;;;;;;;2.47;0.60;;;;;;;2.79;85.86;99418.96;1649295;87;21065;-74
2022/01/06 03:02:46;;;;;;;4.58;0.88;;;;;;;2.78;85.82;99422.45;1649301;87;20977;-75
2022/01/06 03:05:16;;;;;;;5.23;1.10;;;;;;;2.77;85.76;99415.13;1649273;87;21206;-74
2022/01/06 03:07:45;;;;;;;5.90;1.00;;;;;;;2.78;85.73;99420.70;1650762;87;21166;-75
2022/01/06 03:10:15;;;;;;;4.37;0.97;;;;;;;2.76;85.74;99418.58;1622580;88;21062;-74
2022/01/06 03:12:47;;;;;;;5.25;0.85;;;;;;;2.76;85.81;99428.94;1649358;87;20954;-76
2022/01/06 03:15:20;;;;;;;6.87;1.10;;;;;;;2.76;85.73;99430.67;1649172;87;21022;-74
2022/01/06 03:17:51;;;;;;;6.47;1.10;;;;;;;2.75;85.78;99436.75;1649179;87;21594;-74
2022/01/06 03:20:21;;;;;;;4.03;0.87;;;;;;;2.75;85.79;99430.27;1649298;87;21129;-74
2022/01/06 03:22:48;;;;;;;6.28;1.10;;;;;;;2.76;85.87;99435.41;1649228;87;21309;-74
2022/01/06 03:25:16;;;;;;;3.67;0.80;;;;;;;2.74;85.74;99436.31;1650872;87;21069;-74
2022/01/06 03:27:44;;;;;;;4.43;0.80;;;;;;;2.72;85.77;99445.42;1650635;87;21065;-74
2022/01/06 03:30:15;;;;;;;2.70;0.67;;;;;;;2.74;85.90;99441.05;1650867;87;21038;-74
2022/01/06 03:32:43;;;;;;;5.50;0.83;;;;;;;2.74;85.90;99448.80;1622649;88;21273;-74
2022/01/06 03:35:14;;;;;;;4.27;1.00;;;;;;;2.76;85.86;99453.52;1649343;87;21100;-74
2022/01/06 03:37:41;;;;;;;3.13;0.63;;;;;;;2.75;85.89;99447.09;1649282;87;21069;-76
2022/01/06 03:40:10;;;;;;;4.13;0.80;;;;;;;2.77;85.95;99443.59;1649430;87;21089;-75
2022/01/06 03:42:37;;;;;;;5.63;1.20;;;;;;;2.76;85.87;99436.70;1649318;87;21133;-77
2022/01/06 03:45:10;;;;;;;5.13;0.90;;;;;;;2.77;85.91;99441.01;1649636;87;21130;-74
2022/01/06 03:47:37;;;;;;;7.73;1.70;;;;;;;2.76;85.84;99447.05;1622711;88;21603;-74
2022/01/06 03:50:06;;;;;;;3.93;1.07;;;;;;;2.75;85.76;99442.77;1622800;88;21622;-76
2022/01/06 03:52:34;;;;;;;4.10;0.97;;;;;;;2.73;85.70;99441.09;1650853;87;21129;-74
2022/01/06 03:55:02;;;;;;;3.13;1.10;;;;;;;2.71;85.68;99446.73;1650723;87;21108;-74
2022/01/06 03:57:29;;;;;;;3.33;0.80;;;;;;;2.68;85.60;99454.95;1650735;87;21227;-75
2022/01/06 03:59:56;;;;;;;3.23;0.70;;;;;;;2.64;85.55;99452.03;1641536;86;21018;-75
2022/01/06 04:02:25;;;;;;;5.37;1.00;;;;;;;2.61;85.57;99465.48;1613100;89;21074;-74
2022/01/06 04:04:52;;;;;;;6.50;1.33;;;;;;;2.60;85.73;99469.78;1641157;87;21019;-76
2022/01/06 04:07:19;;;;;;;3.97;1.00;;;;;;;2.59;85.69;99462.06;1613169;89;21062;-74
2022/01/06 04:09:48;;;;;;;3.90;1.43;;;;;;;2.58;85.81;99472.86;1640961;87;21189;-74
2022/01/06 04:12:15;;;;;;;6.00;1.70;;;;;;;2.58;85.86;99470.27;1613188;89;21062;-77
2022/01/06 04:14:42;;;;;;;5.77;1.43;;;;;;;2.61;85.91;99473.24;1641110;87;21073;-75
2022/01/06 04:17:09;;;;;;;5.37;1.43;;;;;;;2.61;85.90;99475.38;1613110;89;20982;-74
2022/01/06 04:19:36;;;;;;;4.87;1.30;;;;;;;2.63;86.04;99476.63;1641068;87;21046;-76
2022/01/06 04:22:05;;;;;;;5.17;1.83;;;;;;;2.65;86.04;99480.05;1613106;89;21117;-74
2022/01/06 04:24:35;;;;;;;8.93;2.37;;;;;;;2.67;86.03;99486.90;1614897;88;21025;-74
2022/01/06 04:27:02;;;;;;;5.83;1.47;;;;;;;2.68;86.06;99486.00;1640872;87;21054;-77
2022/01/06 04:29:29;;;;;;;5.43;1.73;;;;;;;2.70;86.01;99488.58;1613486;89;20982;-74
2022/01/06 04:31:56;;;;;;;3.53;1.10;;;;;;;2.70;85.93;99500.67;1640770;87;21563;-74
2022/01/06 04:34:23;;;;;;;4.70;1.53;;;;;;;2.69;85.91;99503.70;1613218;89;21980;-75
2022/01/06 04:36:54;;;;;;;4.03;1.40;;;;;;;2.69;85.89;99516.64;1640788;87;21023;-74
2022/01/06 04:39:19;;;;;;;6.23;1.20;;;;;;;2.68;85.92;99517.50;1613250;89;21061;-74
2022/01/06 04:41:46;;;;;;;3.73;1.20;;;;;;;2.68;85.98;99527.41;1640749;87;21110;-74
2022/01/06 04:44:13;;;;;;;1.60;0.70;;;;;;;2.67;85.81;99522.27;1613148;89;21070;-75
2022/01/06 04:46:41;;;;;;;4.67;1.23;;;;;;;2.65;85.70;99530.50;1640792;87;21271;-74
2022/01/06 04:49:09;;;;;;;6.83;2.50;;;;;;;2.62;85.64;99526.68;1613268;89;21102;-76
2022/01/06 04:51:36;;;;;;;5.00;1.57;;;;;;;2.62;85.63;99537.03;1640844;87;21069;-74
2022/01/06 04:54:04;;;;;;;5.20;1.50;;;;;;;2.59;85.59;99529.33;1613437;89;21134;-74
2022/01/06 04:56:36;;;;;;;5.03;1.10;;;;;;;2.56;85.59;99535.41;1640746;87;21078;-76
2022/01/06 04:59:00;;;;;;;4.63;1.20;;;;;;;2.53;85.53;99535.91;1613204;89;21931;-75
2022/01/06 05:01:27;;;;;;;3.10;1.00;;;;;;;2.47;85.34;99535.58;1640840;87;22400;-74
2022/01/06 05:03:54;;;;;;;4.27;1.30;;;;;;;2.41;85.29;99542.13;1613394;89;21050;-76
2022/01/06 05:06:20;;;;;;;3.87;1.07;;;;;;;2.36;85.33;99555.16;1640867;87;21113;-74
2022/01/06 05:08:48;;;;;;;6.33;1.37;;;;;;;2.30;85.37;99557.86;1613479;89;21544;-74
2022/01/06 05:11:15;;;;;;;2.73;1.00;;;;;;;2.28;85.39;99574.28;1640906;87;21404;-74
2022/01/06 05:13:42;;;;;;;2.67;0.80;;;;;;;2.23;85.36;99566.14;1613021;89;21083;-74
2022/01/06 05:16:09;;;;;;;4.00;1.30;;;;;;;2.19;85.35;99568.38;1640707;87;21077;-76
2022/01/06 05:18:36;;;;;;;6.77;1.80;;;;;;;2.16;85.30;99574.89;1613372;89;21078;-75
2022/01/06 05:21:06;;;;;;;5.27;1.80;;;;;;;2.12;85.21;99580.13;1640797;87;21580;-76
2022/01/06 05:23:35;;;;;;;9.90;2.60;;;;;;;2.08;85.35;99592.67;1613374;89;22104;-76
2022/01/06 05:26:03;;;;;;;4.57;1.13;;;;;;;2.05;85.37;99600.47;1640790;87;21023;-77
2022/01/06 05:28:30;;;;;;;3.13;1.00;;;;;;;1.99;85.30;99618.22;1613295;89;21035;-77
2022/01/06 05:30:57;;;;;;;3.00;0.90;;;;;;;1.92;85.32;99633.42;1640719;87;21085;-78
2022/01/06 05:33:26;;;;;;;3.00;0.87;;;;;;;1.73;84.77;99630.22;1613300;89;21039;-77
2022/01/06 05:35:54;;;;;;;2.60;1.10;;;;;;;1.51;84.59;99633.08;1640577;87;21337;-77
2022/01/06 05:38:21;;;;;;;5.20;1.33;;;;;;;1.37;84.86;99635.42;1613203;89;20994;-78
2022/01/06 05:40:48;;;;;;;4.33;1.17;;;;;;;1.25;84.98;99642.87;1640673;87;21031;-78
2022/01/06 05:43:15;;;;;;;2.53;1.10;;;;;;;1.15;85.03;99643.41;1613229;89;21078;-77
2022/01/06 05:45:42;;;;;;;5.43;1.40;;;;;;;0.99;85.12;99645.72;1640881;87;21010;-76
2022/01/06 05:48:09;;;;;;;5.43;2.30;;;;;;;0.87;85.33;99656.59;1613370;89;21372;-77
2022/01/06 05:50:36;;;;;;;9.53;1.77;;;;;;;0.76;85.33;99658.85;1640570;87;21054;-76
2022/01/06 05:53:03;;;;;;;8.23;2.33;;;;;;;0.67;85.58;99661.08;1613090;89;21094;-77
2022/01/06 05:55:31;;;;;;;6.33;2.13;;;;;;;0.60;85.81;99669.28;1640963;87;21098;-78
2022/01/06 05:57:58;;;;;;;4.07;1.17;;;;;;;0.57;86.05;99671.89;1613208;89;21046;-76
2022/01/06 06:00:25;;;;;;;4.83;1.10;;;;;;;0.55;86.21;99671.48;1640737;86;21133;-76
2022/01/06 06:02:52;;;;;;;4.07;1.30;;;;;;;0.54;86.65;99669.34;1612945;89;21078;-78
2022/01/06 06:05:19;;;;;;;4.73;0.90;;;;;;;0.55;86.58;99681.36;1640992;87;21057;-76
2022/01/06 06:07:46;;;;;;;3.53;1.03;;;;;;;0.54;86.62;99687.84;1613316;89;21106;-76
2022/01/06 06:10:13;;;;;;;9.50;2.47;;;;;;;0.54;86.79;99684.81;1640773;87;21053;-77
2022/01/06 06:12:41;;;;;;;4.27;1.20;;;;;;;0.54;86.85;99692.99;1613242;89;21130;-76
2022/01/06 06:15:09;;;;;;;2.20;1.40;;;;;;;0.52;86.78;99696.86;1640652;87;21066;-77
2022/01/06 06:17:36;;;;;;;9.13;2.20;;;;;;;0.49;86.86;99698.61;1613438;89;21592;-76
2022/01/06 06:20:04;;;;;;;8.93;4.00;;;;;;;0.47;87.10;99708.92;1640705;87;21070;-76
2022/01/06 06:22:32;;;;;;;7.97;2.80;;;;;;;0.48;87.30;99711.09;1613280;89;21162;-75
2022/01/06 06:24:59;;;;;;;8.50;2.53;;;;;;;0.48;87.26;99716.25;1640748;87;21114;-76
2022/01/06 06:27:26;;;;;;;19.80;8.43;;;;;;;0.50;87.60;99719.24;1613237;89;21067;-76
2022/01/06 06:29:54;;;;;;;21.90;8.00;;;;;;;0.53;87.65;99727.39;1640704;87;21500;-75
2022/01/06 06:32:21;;;;;;;14.60;5.47;;;;;;;0.55;87.93;99745.83;1613061;89;20986;-78
2022/01/06 06:34:48;;;;;;;7.47;2.93;;;;;;;0.55;87.80;99749.69;1610885;89;21133;-76
2022/01/06 06:37:14;;;;;;;6.13;3.10;;;;;;;0.52;87.79;99751.01;1603453;88;21929;-76
2022/01/06 06:39:41;;;;;;;3.60;1.40;;;;;;;0.49;87.79;99771.66;1603039;89;21096;-76
2022/01/06 06:42:09;;;;;;;5.73;2.20;;;;;;;0.40;87.60;99767.86;1602893;89;21101;-77
2022/01/06 06:44:36;;;;;;;4.67;2.13;;;;;;;0.35;87.69;99769.16;1628603;86;21591;-77
2022/01/06 06:47:03;;;;;;;3.20;1.33;;;;;;;0.31;87.73;99772.64;1628427;86;21118;-77
2022/01/06 06:49:30;;;;;;;3.07;0.90;;;;;;;0.28;87.62;99776.92;1628153;86;21544;-77
2022/01/06 06:51:57;;;;;;;2.63;1.20;;;;;;;0.20;87.52;99777.84;1628308;88;21569;-77
2022/01/06 06:54:25;;;;;;;2.60;0.73;;;;;;;0.19;87.79;99781.30;1628463;88;21039;-76
2022/01/06 06:56:52;;;;;;;3.73;1.00;;;;;;;0.17;87.59;99795.05;1628417;88;21133;-77
2022/01/06 06:59:19;;;;;;;1.47;0.70;;;;;;;0.12;87.76;99793.77;1627173;88;21098;-76
2022/01/06 07:01:46;;;;;;;1.87;0.83;;;;;;;0.10;87.77;99801.93;1621620;88;21141;-76
2022/01/06 07:04:12;;;;;;;3.37;0.90;;;;;;;0.09;87.86;99808.39;1621388;88;20948;-76
2022/01/06 07:06:40;;;;;;;4.73;1.10;;;;;;;0.07;87.90;99816.13;1621614;88;21036;-76
2022/01/06 07:09:07;;;;;;;1.50;0.97;;;;;;;0.06;87.95;99818.28;1621587;88;21079;-79
2022/01/06 07:11:34;;;;;;;1.50;1.00;;;;;;;0.07;88.08;99838.45;1621819;88;21115;-77
2022/01/06 07:14:01;;;;;;;3.43;0.90;;;;;;;0.05;88.04;99842.75;1621616;88;21900;-78
2022/01/06 07:16:28;;;;;;;3.00;0.70;;;;;;;0.00;87.95;99845.36;1621947;87;21074;-77
2022/01/06 07:18:56;;;;;;;5.07;0.77;;;;;;;-0.04;87.84;99843.64;1638427;87;21067;-76
2022/01/06 07:21:22;;;;;;;2.90;0.80;;;;;;;-0.07;87.84;99852.23;1612165;89;21047;-75
2022/01/06 07:23:49;;;;;;;1.97;1.10;;;;;;;-0.08;87.91;99856.97;1611048;88;21571;-77
2022/01/06 07:26:16;;;;;;;3.00;1.40;;;;;;;-0.09;87.98;99870.69;1611107;89;21184;-78
2022/01/06 07:28:43;;;;;;;3.00;1.30;;;;;;;-0.07;88.14;99877.14;1638023;87;20962;-76
2022/01/06 07:31:11;;;;;;;5.50;1.53;;;;;;;-0.07;88.25;99880.57;1638399;87;21007;-74
2022/01/06 07:33:38;;;;;;;7.40;2.60;;;;;;;-0.03;88.35;99894.30;1638299;87;21066;-76
2022/01/06 07:36:05;;;;;;;8.80;3.53;;;;;;;0.02;88.31;99896.44;1637969;87;21078;-77
2022/01/06 07:38:32;;;;;;;10.43;3.67;;;;;;;0.07;88.71;99902.87;1612351;89;21992;-76
2022/01/06 07:40:59;;;;;;;16.10;6.40;;;;;;;0.10;88.43;99920.47;1610903;88;21101;-77
2022/01/06 07:43:26;;;;;;;11.60;4.90;;;;;;;0.09;88.38;99926.93;1638210;87;21069;-76
2022/01/06 07:45:53;;;;;;;8.53;4.00;;;;;;;0.12;88.64;99937.23;1619062;88;21044;-78
2022/01/06 07:48:26;;;;;;;5.10;1.73;;;;;;;0.15;88.70;99933.35;1621553;88;21048;-78
2022/01/06 07:50:49;;;;;;;10.70;4.17;;;;;;;0.14;88.38;99942.81;1621257;88;21305;-76
2022/01/06 07:53:16;;;;;;;7.67;3.87;;;;;;;0.13;88.48;99959.55;1621595;88;20991;-77
2022/01/06 07:55:43;;;;;;;8.70;2.03;;;;;;;0.10;88.16;99955.69;1622048;87;21081;-78
2022/01/06 07:58:10;;;;;;;5.17;1.87;;;;;;;0.08;88.10;99962.13;1638448;87;21075;-77
2022/01/06 08:00:37;;;;;;;4.07;1.30;;;;;;;0.06;87.95;99972.89;1645713;85;21306;-77
2022/01/06 08:03:04;;;;;;;6.47;1.10;;;;;;;0.04;87.66;99975.89;1650605;85;22105;-78
2022/01/06 08:05:31;;;;;;;1.77;0.73;;;;;;;-0.03;87.32;99989.22;1665495;85;21070;-77
2022/01/06 08:07:59;;;;;;;3.10;1.00;;;;;;;-0.03;87.20;99996.06;1667274;86;21512;-77
2022/01/06 08:10:26;;;;;;;11.17;4.03;;;;;;;-0.07;87.08;99988.77;1667446;86;20974;-77
2022/01/06 08:12:55;;;;;;;3.63;1.57;;;;;;;-0.07;86.88;100011.11;1667260;86;21057;-76
2022/01/06 08:15:22;;;;;;;4.60;1.10;;;;;;;-0.11;86.70;100015.41;1667441;86;22312;-74
2022/01/06 08:17:49;;;;;;;2.27;1.20;;;;;;;-0.17;86.47;100033.41;1667181;86;21007;-75
2022/01/06 08:20:16;;;;;;;2.20;1.00;;;;;;;-0.17;86.41;100027.41;1636744;86;21112;-76
2022/01/06 08:22:43;;;;;;;2.70;1.07;;;;;;;-0.20;86.23;100035.98;1667389;86;21043;-75
2022/01/06 08:25:10;;;;;;;4.53;1.20;;;;;;;-0.25;86.13;100050.58;1667271;86;21019;-74
2022/01/06 08:27:38;;;;;;;2.97;1.17;;;;;;;-0.29;86.03;100052.73;1667392;86;21969;-74
2022/01/06 08:30:07;;;;;;;2.63;1.30;;;;;;;-0.30;85.92;100066.48;1667106;85;21063;-73
2022/01/06 08:32:35;;;;;;;2.00;0.90;;;;;;;-0.35;85.87;100072.89;1667473;86;21030;-73
2022/01/06 08:35:02;;;;;;;2.50;1.03;;;;;;;-0.38;85.61;100087.48;1667208;85;21062;-73
2022/01/06 08:37:29;;;;;;;2.33;1.00;;;;;;;-0.41;85.54;100090.06;1666379;86;21090;-76
2022/01/06 08:39:56;;;;;;;6.53;1.93;;;;;;;-0.42;85.57;100087.89;1648161;86;21077;-73
2022/01/06 08:42:23;;;;;;;7.47;2.40;;;;;;;-0.43;85.43;100098.20;1667487;86;21035;-73
2022/01/06 08:44:50;;;;;;;4.20;1.33;;;;;;;-0.45;85.35;100108.48;1667308;86;21078;-75
2022/01/06 08:47:18;;;;;;;3.63;1.10;;;;;;;-0.47;85.17;100103.77;1667308;86;21015;-75
2022/01/06 08:49:45;;;;;;;3.03;2.07;;;;;;;-0.47;85.25;100105.06;1667269;86;21050;-73
2022/01/06 08:52:12;;;;;;;3.80;1.30;;;;;;;-0.48;85.16;100111.05;1667586;86;21867;-73
2022/01/06 08:54:38;;;;;;;3.83;1.23;;;;;;;-0.50;85.01;100114.03;1667245;86;21054;-73
2022/01/06 08:57:06;;;;;;;4.50;1.50;;;;;;;-0.53;84.89;100120.47;1667714;85;21527;-73
2022/01/06 08:59:33;;;;;;;3.53;1.40;;;;;;;-0.60;84.62;100123.89;1667223;86;21023;-72
2022/01/06 09:02:00;;;;;;;12.17;5.93;;;;;;;-0.66;84.55;100131.16;1667260;86;21149;-72
2022/01/06 09:04:26;;;;;;;2.90;0.90;;;;;;;-0.69;84.51;100117.84;1667380;86;21532;-72
2022/01/06 09:06:53;;;;;;;6.50;3.47;;;;;;;-0.61;84.66;100136.30;1667270;86;21019;-71
2022/01/06 09:09:22;;;;;;;4.47;1.17;;;;;;;-0.52;84.78;100135.08;1667396;86;21023;-72
2022/01/06 09:11:48;;;;;;;17.60;10.83;;;;;;;-0.46;84.51;100136.38;1638801;87;21000;-72
2022/01/06 09:14:16;;;;;;;4.87;1.40;;;;;;;-0.31;84.92;100143.28;1660643;85;21554;-72
2022/01/06 09:16:43;;;;;;;2.53;1.00;;;;;;;-0.19;84.65;100137.30;1649353;85;21169;-73
2022/01/06 09:19:11;;;;;;;2.60;1.17;;;;;;;-0.18;84.44;100141.62;1652527;85;20986;-74
2022/01/06 09:21:38;;;;;;;5.90;3.43;;;;;;;-0.23;84.00;100146.31;1656995;85;21098;-74
2022/01/06 09:24:10;;;;;;;5.70;1.30;;;;;;;-0.25;83.92;100149.73;1649503;87;21479;-72
2022/01/06 09:26:36;;;;;;;4.77;0.90;;;;;;;-0.24;84.04;100157.48;1648216;86;21577;-74
2022/01/06 09:29:05;;;;;;;7.77;2.73;;;;;;;-0.26;83.90;100154.47;1651241;86;21152;-74
2022/01/06 09:31:35;;;;;;;9.80;3.63;;;;;;;-0.24;83.84;100153.62;1667071;86;21107;-75
2022/01/06 09:34:03;;;;;;;3.90;1.87;;;;;;;-0.15;83.96;100156.64;1667686;86;21019;-74
2022/01/06 09:36:31;;;;;;;7.23;2.50;;;;;;;-0.12;83.76;100156.64;1667342;86;21433;-74
2022/01/06 09:39:00;;;;;;;8.97;3.67;;;;;;;-0.16;83.50;100165.23;1667257;86;21542;-75
2022/01/06 09:41:29;;;;;;;5.00;2.20;;;;;;;-0.18;83.48;100179.82;1667277;86;21157;-76
2022/01/06 09:43:57;;;;;;;3.33;1.43;;;;;;;-0.18;83.51;100160.50;1667435;86;21039;-76
2022/01/06 09:46:27;;;;;;;5.10;1.77;;;;;;;-0.15;83.54;100170.81;1667341;86;21477;-78
2022/01/06 09:48:59;;;;;;;4.87;2.02;;;;;;;-0.16;83.39;100153.64;1667488;86;21409;-77
2022/01/06 09:51:28;;;;;;;5.53;1.90;;;;;;;-0.18;83.28;100167.38;1667240;86;21066;-77
2022/01/06 09:53:59;;;;;;;8.63;3.20;;;;;;;-0.17;83.28;100173.80;1667133;86;21159;-75
2022/01/06 09:56:29;;;;;;;10.30;2.53;;;;;;;-0.18;83.08;100172.52;1667049;86;21058;-74
2022/01/06 09:58:57;;;;;;;6.77;2.13;;;;;;;-0.17;83.05;100185.39;1667674;86;21572;-74
2022/01/06 10:01:24;;;;;;;6.47;1.87;;;;;;;-0.14;83.07;100185.83;1657541;86;21014;-74
2022/01/06 10:03:51;;;;;;;7.83;2.33;;;;;;;-0.09;83.24;100190.14;1647384;86;21059;-75
2022/01/06 10:06:25;;;;;;;4.53;1.33;;;;;;;-0.03;83.09;100193.16;1614440;88;21540;-71
2022/01/06 10:08:56;;;;;;;7.70;1.33;;;;;;;0.06;82.79;100198.36;1612871;89;21027;-72
2022/01/06 10:11:25;;;;;;;;;;;;;;;0.10;82.80;100201.36;1615448;89;21065;-72
2022/01/06 10:14:00;;;;;;;5.10;1.55;;;;;;;0.16;82.66;100200.08;1603406;88;20450;-72
2022/01/06 10:16:29;;;;;;;2.87;1.17;;;;;;;0.27;82.78;100200.10;1628583;88;21112;-75
2022/01/06 10:19:10;;;;;;;5.53;1.40;;;;;;;0.43;82.62;100200.56;1632757;87;21171;-74
2022/01/06 10:21:42;;;;;;;4.23;1.60;;;;;;;0.58;82.50;100197.55;1630015;88;21546;-75
2022/01/06 10:24:15;;;;;;;7.03;1.97;;;;;;;0.77;82.47;100204.43;1630056;87;21075;-74
2022/01/06 10:26:58;;;;;;;7.37;2.10;;;;;;;0.76;81.82;100197.56;1630308;87;21044;-75
2022/01/06 10:29:32;;;;;;;7.77;1.53;;;;;;;0.83;81.76;100208.33;1629915;88;21552;-75
2022/01/06 10:32:15;;;;;;;4.60;1.47;;;;;;;0.96;81.80;100188.95;1630375;88;21147;-75
2022/01/06 10:34:49;;;;;;;4.37;1.43;;;;;;;1.10;81.54;100200.95;1629962;87;21044;-76
2022/01/06 10:37:38;;;;;;;6.43;1.87;;;;;;;1.21;81.52;100197.50;1630381;87;21035;-75
2022/01/06 10:40:25;;;;;;;5.13;1.40;;;;;;;1.18;80.80;100202.24;1629917;87;21521;-74
2022/01/06 10:43:06;;;;;;;4.73;1.43;;;;;;;1.08;81.13;100201.41;1630147;88;21048;-81
2022/01/06 10:45:36;;;;;;;7.27;1.53;;;;;;;0.98;80.88;100225.51;1642517;87;21091;-81
2022/01/06 10:48:04;;;;;;;5.35;1.45;;;;;;;1.00;80.29;100211.30;1630412;87;21075;-78
2022/01/06 10:50:38;;;;;;;6.83;2.00;;;;;;;1.16;80.59;100215.58;1630199;87;21051;-74
2022/01/06 10:53:10;;;;;;;8.03;1.90;;;;;;;1.24;80.74;100214.28;1630464;88;21043;-78
2022/01/06 10:55:40;;;;;;;8.00;2.53;;;;;;;1.22;80.53;100217.28;1630332;88;21116;-74
2022/01/06 10:58:19;;;;;;;;;;;;;;;1.25;80.66;100223.33;1632890;88;21528;-73
2022/01/06 11:01:01;;;;;;;5.57;1.77;;;;;;;1.29;80.22;100219.86;1641382;87;20598;-72
2022/01/06 11:03:35;;;;;;;7.17;2.60;;;;;;;1.45;80.30;100221.13;1628634;87;21027;-74
2022/01/06 11:06:05;;;;;;;8.03;2.70;;;;;;;1.48;80.41;100227.14;1629983;87;21074;-72
2022/01/06 11:08:39;;;;;;;7.73;2.47;;;;;;;1.50;80.20;100224.56;1602741;89;21023;-73
2022/01/06 11:13:37;;;;;;;4.33;1.65;;;;;;;1.45;79.19;100236.19;1629759;88;21532;-72
2022/01/06 11:16:05;;;;;;;;;;;;;;;1.34;79.19;100232.33;1632194;88;21107;-72
2022/01/06 11:18:33;;;;;;;4.03;1.47;;;;;;;1.24;79.33;100229.77;1630422;87;20169;-72
2022/01/06 11:21:12;;;;;;;4.43;1.30;;;;;;;1.15;79.47;100242.70;1636954;87;21055;-74
2022/01/06 11:23:40;;;;;;;5.20;1.27;;;;;;;1.12;79.96;100234.53;1601916;89;21375;-73
2022/01/06 11:26:20;;;;;;;3.10;1.10;;;;;;;1.07;79.80;100234.95;1642447;87;21577;-73
2022/01/06 11:28:58;;;;;;;6.90;1.55;;;;;;;1.01;79.81;100243.56;1607663;88;21515;-75
2022/01/06 11:31:42;;;;;;;4.67;1.60;;;;;;;0.98;79.96;100246.59;1629341;88;21547;-76
2022/01/06 11:34:17;;;;;;;8.97;1.60;;;;;;;0.98;79.76;100250.02;1629526;88;21094;-75
2022/01/06 11:36:52;;;;;;;5.73;1.20;;;;;;;0.95;79.94;100256.48;1629735;88;21157;-73
2022/01/06 11:39:30;;;;;;;6.30;1.67;;;;;;;0.93;80.01;100259.48;1629533;86;21053;-73
2022/01/06 11:41:59;;;;;;;4.58;1.00;;;;;;;0.91;80.00;100268.08;1630653;87;21063;-75
2022/01/06 11:44:32;;;;;;;3.93;1.00;;;;;;;0.89;79.87;100263.80;1630108;87;21067;-72
2022/01/06 11:47:03;;;;;;;3.90;1.07;;;;;;;0.91;79.75;100269.38;1642666;87;21090;-73
2022/01/06 11:49:36;;;;;;;4.73;1.73;;;;;;;0.94;79.78;100270.66;1630116;88;21506;-75
2022/01/06 11:52:13;;;;;;;6.57;1.60;;;;;;;0.94;79.47;100270.22;1630377;88;21082;-77